createdAt,value
2022-11-20T00:00:27.735Z,141.32
2022-11-20T00:04:49.394Z,134.75
2022-11-20T00:08:51.858Z,129.55
2022-11-20T00:12:53.514Z,125.15
2022-11-20T00:16:55.441Z,127.15
2022-11-20T00:21:12.322Z,136.00
2022-11-20T00:25:14.381Z,133.83
2022-11-20T00:29:16.332Z,125.25
2022-11-20T00:33:18.419Z,119.72
2022-11-20T00:37:19.998Z,145.55
2022-11-20T00:41:22.665Z,127.55
2022-11-20T00:45:24.359Z,140.30
2022-11-20T00:49:26.265Z,137.05
2022-11-20T00:53:28.325Z,122.10
2022-11-20T00:57:30.433Z,141.25
2022-11-20T01:01:32.209Z,136.98
2022-11-20T01:05:36.320Z,125.75
2022-11-20T01:09:38.064Z,124.68
2022-11-20T01:13:41.866Z,135.82
2022-11-20T01:17:43.481Z,131.63
2022-11-20T01:21:47.396Z,121.25
2022-11-20T01:25:49.009Z,137.45
2022-11-20T01:29:50.917Z,123.75
2022-11-20T01:33:55.370Z,129.60
2022-11-20T01:37:57.251Z,130.23
2022-11-20T01:42:17.488Z,125.25
2022-11-20T01:46:20.557Z,131.13
2022-11-20T01:50:29.785Z,127.05
2022-11-20T01:54:43.268Z,131.40
2022-11-20T01:58:51.338Z,132.15
2022-11-20T02:02:58.639Z,127.70
2022-11-20T02:07:02.146Z,136.68
2022-11-20T02:11:04.512Z,129.25
2022-11-20T02:15:06.573Z,129.40
2022-11-20T02:19:13.976Z,126.88
2022-11-20T02:23:27.594Z,123.68
2022-11-20T02:27:30.033Z,132.10
2022-11-20T02:31:40.926Z,120.75
2022-11-20T02:35:46.462Z,134.95
2022-11-20T02:39:52.337Z,120.93
2022-11-20T02:43:54.228Z,124.03
2022-11-20T02:47:55.979Z,134.55
2022-11-20T02:51:58.237Z,120.97
2022-11-20T02:55:59.929Z,128.93
2022-11-20T03:00:02.148Z,126.35
2022-11-20T03:04:03.934Z,123.75
2022-11-20T03:08:05.991Z,123.85
2022-11-20T03:12:08.065Z,134.50
2022-11-20T03:16:15.781Z,120.63
2022-11-20T03:20:17.412Z,136.75
2022-11-20T03:24:19.387Z,117.80
2022-11-20T03:28:21.044Z,127.32
2022-11-20T03:32:22.934Z,125.70
2022-11-20T03:36:25.703Z,125.85
2022-11-20T03:40:27.611Z,128.48
2022-11-20T03:44:29.242Z,133.32
2022-11-20T03:48:31.603Z,135.18
2022-11-20T03:52:33.258Z,138.55
2022-11-20T03:56:38.318Z,135.38
2022-11-20T04:00:40.008Z,139.73
2022-11-20T04:04:41.968Z,135.68
2022-11-20T04:08:44.148Z,121.10
2022-11-20T04:12:46.294Z,127.82
2022-11-20T04:16:48.437Z,125.00
2022-11-20T04:20:50.352Z,131.07
2022-11-20T04:24:52.004Z,126.88
2022-11-20T04:28:54.475Z,116.90
2022-11-20T04:32:56.084Z,122.20
2022-11-20T04:36:57.930Z,115.95
2022-11-20T04:41:05.731Z,118.88
2022-11-20T04:45:07.909Z,127.50
2022-11-20T04:49:09.708Z,124.90
2022-11-20T04:53:11.859Z,116.13
2022-11-20T04:57:14.757Z,111.68
2022-11-20T05:01:22.935Z,111.45
2022-11-20T05:05:24.942Z,117.57
2022-11-20T05:09:26.867Z,118.57
2022-11-20T05:13:28.661Z,116.15
2022-11-20T05:17:30.704Z,122.32
2022-11-20T05:21:33.409Z,120.70
2022-11-20T05:25:35.324Z,113.82
2022-11-20T05:29:37.106Z,112.80
2022-11-20T05:33:41.926Z,112.03
2022-11-20T05:37:43.531Z,120.20
2022-11-20T05:41:45.472Z,122.35
2022-11-20T05:45:56.602Z,126.22
2022-11-20T05:49:58.510Z,122.60
2022-11-20T05:54:00.201Z,108.82
2022-11-20T05:58:02.156Z,119.13
2022-11-20T06:02:03.791Z,119.32
2022-11-20T06:06:07.356Z,129.55
2022-11-20T06:10:09.558Z,127.47
2022-11-20T06:14:11.446Z,139.25
2022-11-20T06:18:13.083Z,148.57
2022-11-20T06:22:15.014Z,143.35
2022-11-20T06:26:19.066Z,131.63
2022-11-20T06:30:21.083Z,131.30
2022-11-20T06:34:22.686Z,124.07
2022-11-20T06:38:25.863Z,124.70
2022-11-20T06:42:27.491Z,130.35
2022-11-20T06:46:29.373Z,140.57
2022-11-20T06:50:31.020Z,128.40
2022-11-20T06:54:33.123Z,138.30
2022-11-20T06:58:36.281Z,140.45
2022-11-20T07:02:38.300Z,136.40
2022-11-20T07:06:40.058Z,136.93
2022-11-20T07:10:42.149Z,134.70
2022-11-20T07:14:43.770Z,132.45
2022-11-20T07:18:50.178Z,137.50
2022-11-20T07:22:59.242Z,140.75
2022-11-20T07:27:01.478Z,137.85
2022-11-20T07:31:04.136Z,128.35
2022-11-20T07:35:06.512Z,146.90
2022-11-20T07:39:08.154Z,123.25
2022-11-20T07:43:10.143Z,125.22
2022-11-20T07:47:11.761Z,111.38
2022-11-20T07:51:14.496Z,112.22
2022-11-20T07:55:16.444Z,116.90
2022-11-20T07:59:18.574Z,118.78
2022-11-20T08:03:24.642Z,117.90
2022-11-20T08:07:27.450Z,112.00
2022-11-20T08:11:47.912Z,110.43
2022-11-20T08:15:51.789Z,112.07
2022-11-20T08:19:54.058Z,110.60
2022-11-20T08:23:55.916Z,116.50
2022-11-20T08:28:08.994Z,100.88
2022-11-20T08:32:17.968Z,111.68
2022-11-20T08:36:20.586Z,104.20
2022-11-20T08:40:22.466Z,96.50
2022-11-20T08:44:24.896Z,97.20
2022-11-20T08:48:26.804Z,95.88
2022-11-20T08:52:28.393Z,89.57
2022-11-20T08:56:30.674Z,102.57
2022-11-20T09:00:33.496Z,93.15
2022-11-20T09:04:36.241Z,98.40
2022-11-20T09:08:38.441Z,96.38
2022-11-20T09:12:40.312Z,98.97
2022-11-20T09:16:42.160Z,95.22
2022-11-20T09:20:44.342Z,106.93
2022-11-20T09:24:46.062Z,93.22
2022-11-20T09:28:47.978Z,99.47
2022-11-20T09:32:49.917Z,98.65
2022-11-20T09:36:51.839Z,99.80
2022-11-20T09:41:04.118Z,102.72
2022-11-20T09:45:15.316Z,95.35
2022-11-20T09:49:36.477Z,93.75
2022-11-20T09:54:02.976Z,98.22
2022-11-20T09:58:30.540Z,92.25
2022-11-20T10:02:38.514Z,96.07
2022-11-20T10:07:37.019Z,90.60
2022-11-20T10:11:51.172Z,94.55
2022-11-20T10:16:17.779Z,85.78
2022-11-20T10:20:41.800Z,96.82
2022-11-20T10:24:57.561Z,88.13
2022-11-20T10:29:09.100Z,85.68
2022-11-20T10:33:20.662Z,91.57
2022-11-20T10:37:25.848Z,88.65
2022-11-20T10:41:35.871Z,91.35
2022-11-20T10:45:54.105Z,86.38
2022-11-20T10:49:59.177Z,84.28
2022-11-20T10:54:26.919Z,83.72
2022-11-20T10:59:03.452Z,85.10
2022-11-20T11:03:28.375Z,82.07
2022-11-20T11:07:36.191Z,92.45
2022-11-20T11:11:39.272Z,95.40
2022-11-20T11:15:42.172Z,80.57
2022-11-20T11:19:43.911Z,84.53
2022-11-20T11:23:45.782Z,85.32
2022-11-20T11:27:49.087Z,79.80
2022-11-20T11:31:51.076Z,87.63
2022-11-20T11:35:57.939Z,83.35
2022-11-20T11:40:22.829Z,92.28
2022-11-20T11:44:51.011Z,83.43
2022-11-20T11:48:58.418Z,81.07
2022-11-20T11:53:12.115Z,85.80
2022-11-20T11:57:27.488Z,85.28
2022-11-20T12:01:37.822Z,83.22
2022-11-20T12:05:44.904Z,93.65
2022-11-20T12:09:52.835Z,79.68
2022-11-20T12:18:20.735Z,84.13
2022-11-20T12:22:42.418Z,85.22
2022-11-20T12:27:06.202Z,85.00
2022-11-20T12:31:22.266Z,79.88
2022-11-20T12:35:42.923Z,81.60
2022-11-20T12:39:55.058Z,86.45
2022-11-20T12:44:49.583Z,82.78
2022-11-20T12:49:10.019Z,80.43
2022-11-20T12:53:42.006Z,79.75
2022-11-20T12:58:01.677Z,73.60
2022-11-20T13:02:24.326Z,85.63
2022-11-20T13:06:26.867Z,81.13
2022-11-20T13:10:47.568Z,71.65
2022-11-20T13:15:23.825Z,89.38
2022-11-20T13:19:26.543Z,87.82
2022-11-20T13:23:28.915Z,79.78
2022-11-20T13:27:31.982Z,82.85
2022-11-20T13:31:36.123Z,82.28
2022-11-20T13:35:42.899Z,104.28
2022-11-20T13:39:44.612Z,87.55
2022-11-20T13:43:48.878Z,83.72
2022-11-20T13:47:52.227Z,91.88
2022-11-20T13:52:23.371Z,90.38
2022-11-20T13:56:49.940Z,92.25
2022-11-20T14:01:16.631Z,83.03
2022-11-20T14:05:24.178Z,93.15
2022-11-20T14:09:31.885Z,95.07
2022-11-20T14:13:33.615Z,103.40
2022-11-20T14:17:37.622Z,97.50
2022-11-20T14:21:39.257Z,103.32
2022-11-20T14:25:46.044Z,102.82
2022-11-20T14:29:50.612Z,106.53
2022-11-20T14:33:54.911Z,103.30
2022-11-20T14:37:57.699Z,103.13
2022-11-20T14:42:00.096Z,105.22
2022-11-20T14:46:11.330Z,100.60
2022-11-20T14:50:29.644Z,101.55
2022-11-20T14:54:31.702Z,100.78
2022-11-20T14:58:35.055Z,121.07
2022-11-20T15:02:44.269Z,104.18
2022-11-20T15:06:55.446Z,107.07
2022-11-20T15:10:57.901Z,111.35
2022-11-20T15:15:01.177Z,118.10
2022-11-20T15:19:11.207Z,114.13
2022-11-20T15:23:15.724Z,126.75
2022-11-20T15:27:17.719Z,117.18
2022-11-20T15:31:22.882Z,107.45
2022-11-20T15:35:24.491Z,119.88
2022-11-20T15:39:26.461Z,114.03
2022-11-20T15:43:28.181Z,116.10
2022-11-20T15:47:33.660Z,106.20
2022-11-20T15:51:37.199Z,112.47
2022-11-20T15:55:39.158Z,103.60
2022-11-20T15:59:42.586Z,107.80
2022-11-20T16:03:44.740Z,109.70
2022-11-20T16:07:46.396Z,108.38
2022-11-20T16:11:48.285Z,111.32
2022-11-20T16:15:58.086Z,116.57
2022-11-20T16:20:00.020Z,124.15
2022-11-20T16:24:04.066Z,120.32
2022-11-20T16:28:06.726Z,125.47
2022-11-20T16:32:11.024Z,139.05
2022-11-20T16:36:16.280Z,122.45
2022-11-20T16:40:18.306Z,126.45
2022-11-20T16:44:20.248Z,130.52
2022-11-20T16:48:21.990Z,117.80
2022-11-20T16:52:23.876Z,123.40
2022-11-20T16:56:27.580Z,113.55
2022-11-20T17:00:29.870Z,118.45
2022-11-20T17:04:31.557Z,115.70
2022-11-20T17:08:33.526Z,105.55
2022-11-20T17:12:35.208Z,109.32
2022-11-20T17:16:37.636Z,104.82
2022-11-20T17:20:39.358Z,104.75
2022-11-20T17:24:41.328Z,108.60
2022-11-20T17:28:46.686Z,114.57
2022-11-20T17:32:48.637Z,109.72
2022-11-20T17:36:50.394Z,97.78
2022-11-20T17:40:52.482Z,102.35
2022-11-20T17:44:54.211Z,96.93
2022-11-20T17:48:56.546Z,104.07
2022-11-20T17:52:58.380Z,106.70
2022-11-20T17:57:18.702Z,96.75
2022-11-20T18:01:22.226Z,110.75
2022-11-20T18:05:26.248Z,100.70
2022-11-20T18:09:28.382Z,107.40
2022-11-20T18:13:50.232Z,107.80
2022-11-20T18:17:51.977Z,119.25
2022-11-20T18:21:54.056Z,118.78
2022-11-20T18:26:00.410Z,130.35
2022-11-20T18:30:02.468Z,130.95
2022-11-20T18:34:04.518Z,127.90
2022-11-20T18:38:06.231Z,143.82
2022-11-20T18:42:31.328Z,140.95
2022-11-20T18:46:32.989Z,124.93
2022-11-20T18:50:34.969Z,134.65
2022-11-20T18:54:37.002Z,146.88
2022-11-20T18:58:41.165Z,131.35
2022-11-20T19:02:43.547Z,145.00
2022-11-20T19:06:49.456Z,150.35
2022-11-20T19:10:51.509Z,153.30
2022-11-20T19:14:53.507Z,160.35
2022-11-20T19:18:57.267Z,145.15
2022-11-20T19:22:59.566Z,160.82
2022-11-20T19:27:01.808Z,159.20
2022-11-20T19:31:08.617Z,149.23
2022-11-20T19:35:10.395Z,145.95
2022-11-20T19:39:12.903Z,155.05
2022-11-20T19:43:14.701Z,136.98
2022-11-20T19:47:16.916Z,145.40
2022-11-20T19:51:24.174Z,145.27
2022-11-20T19:55:26.853Z,132.00
2022-11-20T19:59:28.558Z,144.13
2022-11-20T20:03:32.163Z,136.55
2022-11-20T20:07:34.085Z,135.10
2022-11-20T20:11:37.245Z,138.85
2022-11-20T20:15:41.999Z,149.23
2022-11-20T20:19:44.193Z,153.73
2022-11-20T20:23:51.228Z,136.57
2022-11-20T20:27:54.091Z,144.52
2022-11-20T20:31:55.876Z,135.45
2022-11-20T20:35:59.295Z,149.45
2022-11-20T20:40:01.044Z,135.57
2022-11-20T20:44:21.368Z,125.40
2022-11-20T20:48:24.693Z,127.43
2022-11-20T20:52:29.315Z,137.27
2022-11-20T20:56:31.067Z,131.82
2022-11-20T21:00:33.182Z,129.55
2022-11-20T21:04:34.850Z,128.57
2022-11-20T21:08:40.380Z,132.43
2022-11-20T21:12:43.080Z,124.68
2022-11-20T21:16:45.180Z,124.13
2022-11-20T21:21:06.303Z,127.72
2022-11-20T21:25:08.276Z,131.43
2022-11-20T21:29:10.099Z,128.00
2022-11-20T21:33:12.624Z,127.30
2022-11-20T21:37:14.209Z,131.32
2022-11-20T21:41:16.797Z,133.43
2022-11-20T21:45:18.456Z,131.25
2022-11-20T21:49:20.504Z,134.93
2022-11-20T21:53:22.267Z,139.45
2022-11-20T21:57:24.415Z,147.30
2022-11-20T22:01:28.809Z,139.25
2022-11-20T22:05:30.909Z,127.53
2022-11-20T22:09:32.563Z,130.95
2022-11-20T22:13:53.379Z,143.15
2022-11-20T22:18:13.444Z,161.98
2022-11-20T22:22:15.419Z,136.52
2022-11-20T22:26:23.302Z,134.45
2022-11-20T22:30:25.449Z,138.95
2022-11-20T22:34:27.515Z,148.95
2022-11-20T22:38:31.429Z,133.93
2022-11-20T22:42:34.559Z,142.43
2022-11-20T22:46:37.729Z,127.10
2022-11-20T22:50:39.298Z,126.82
2022-11-20T22:54:41.185Z,140.63
2022-11-20T22:58:45.216Z,142.23
2022-11-20T23:02:46.832Z,143.77
2022-11-20T23:06:48.764Z,150.85
2022-11-20T23:10:50.502Z,164.57
2022-11-20T23:14:52.390Z,158.02
2022-11-20T23:18:58.871Z,152.30
2022-11-20T23:23:00.879Z,167.07
2022-11-20T23:27:02.869Z,157.82
2022-11-20T23:31:05.521Z,169.30
2022-11-20T23:35:07.890Z,165.82
2022-11-20T23:39:10.012Z,167.63
2022-11-20T23:43:17.711Z,169.93
2022-11-20T23:51:21.406Z,175.63
2022-11-20T23:55:23.296Z,177.77
2022-11-20T23:59:25.757Z,180.23
